Terminal Aerodrome Forecast
Issued by NWS

Home | Current Version | Previous Version | Text Only | Print | Product List | Glossary On
Versions: 1 2 3 4 5 6 7 8 9 10 11 12 13 14 15 16 17 18 19
000
FTUS46 KLOX 011100
TAFOXR
TAF
KOXR 011138Z 0112/0212 VRB03KT P6SM OVC009
     FM011630 VRB03KT P6SM SCT012
     FM011800 27007KT P6SM SKC
     FM012100 26012KT P6SM SKC
     FM020400 VRB03KT P6SM SKC
     FM020900 VRB03KT P6SM BKN008=

USA.gov is the U.S. government's official web portal to all federal, state and local government web resources and services.